sensor_id;sensor_type;location;lat;lon;timestamp;temperature;humidity
67641;SHT31;54434;50.096;20.082;2024-02-23T00:02:21;10.59;63.39
67641;SHT31;54434;50.096;20.082;2024-02-23T00:05:15;10.57;63.36
67641;SHT31;54434;50.096;20.082;2024-02-23T00:08:09;10.56;63.36
67641;SHT31;54434;50.096;20.082;2024-02-23T00:11:03;10.55;63.31
67641;SHT31;54434;50.096;20.082;2024-02-23T00:13:57;10.57;63.20
67641;SHT31;54434;50.096;20.082;2024-02-23T00:16:52;10.57;63.11
67641;SHT31;54434;50.096;20.082;2024-02-23T00:19:46;10.57;63.09
67641;SHT31;54434;50.096;20.082;2024-02-23T00:22:41;10.55;63.19
67641;SHT31;54434;50.096;20.082;2024-02-23T00:25:35;10.55;63.19
67641;SHT31;54434;50.096;20.082;2024-02-23T00:28:32;10.53;63.16
67641;SHT31;54434;50.096;20.082;2024-02-23T00:31:35;10.53;63.15
67641;SHT31;54434;50.096;20.082;2024-02-23T00:34:53;10.52;63.15
67641;SHT31;54434;50.096;20.082;2024-02-23T00:37:54;10.49;63.34
67641;SHT31;54434;50.096;20.082;2024-02-23T00:40:53;10.48;63.38
67641;SHT31;54434;50.096;20.082;2024-02-23T00:44:12;10.44;63.44
67641;SHT31;54434;50.096;20.082;2024-02-23T00:47:24;10.44;63.50
67641;SHT31;54434;50.096;20.082;2024-02-23T00:50:48;10.43;63.50
67641;SHT31;54434;50.096;20.082;2024-02-23T00:53:43;10.42;63.67
67641;SHT31;54434;50.096;20.082;2024-02-23T00:56:40;10.42;64.06
67641;SHT31;54434;50.096;20.082;2024-02-23T00:59:43;10.41;64.24
67641;SHT31;54434;50.096;20.082;2024-02-23T01:02:38;10.41;64.31
67641;SHT31;54434;50.096;20.082;2024-02-23T01:05:32;10.43;64.37
67641;SHT31;54434;50.096;20.082;2024-02-23T01:08:27;10.43;64.47
67641;SHT31;54434;50.096;20.082;2024-02-23T01:11:21;10.43;64.44
67641;SHT31;54434;50.096;20.082;2024-02-23T01:14:15;10.43;64.45
67641;SHT31;54434;50.096;20.082;2024-02-23T01:17:09;10.43;64.59
67641;SHT31;54434;50.096;20.082;2024-02-23T01:20:03;10.42;64.64
67641;SHT31;54434;50.096;20.082;2024-02-23T01:22:58;10.44;64.86
67641;SHT31;54434;50.096;20.082;2024-02-23T01:25:52;10.44;65.01
67641;SHT31;54434;50.096;20.082;2024-02-23T01:28:47;10.44;65.15
67641;SHT31;54434;50.096;20.082;2024-02-23T01:31:41;10.44;65.30
67641;SHT31;54434;50.096;20.082;2024-02-23T01:34:34;10.44;65.41
67641;SHT31;54434;50.096;20.082;2024-02-23T01:37:28;10.41;65.68
67641;SHT31;54434;50.096;20.082;2024-02-23T01:40:22;10.41;65.93
67641;SHT31;54434;50.096;20.082;2024-02-23T01:43:15;10.37;66.15
67641;SHT31;54434;50.096;20.082;2024-02-23T01:46:09;10.34;66.39
67641;SHT31;54434;50.096;20.082;2024-02-23T01:49:05;10.30;66.55
67641;SHT31;54434;50.096;20.082;2024-02-23T01:52:00;10.26;66.57
67641;SHT31;54434;50.096;20.082;2024-02-23T01:54:55;10.24;66.61
67641;SHT31;54434;50.096;20.082;2024-02-23T01:57:50;10.23;66.62
67641;SHT31;54434;50.096;20.082;2024-02-23T02:00:45;10.21;66.60
67641;SHT31;54434;50.096;20.082;2024-02-23T02:03:38;10.19;66.67
67641;SHT31;54434;50.096;20.082;2024-02-23T02:06:32;10.18;66.70
67641;SHT31;54434;50.096;20.082;2024-02-23T02:09:26;10.17;66.71
67641;SHT31;54434;50.096;20.082;2024-02-23T02:12:27;10.17;66.71
67641;SHT31;54434;50.096;20.082;2024-02-23T02:15:21;10.15;66.70
67641;SHT31;54434;50.096;20.082;2024-02-23T02:18:15;10.13;66.64
67641;SHT31;54434;50.096;20.082;2024-02-23T02:21:08;10.12;66.52
67641;SHT31;54434;50.096;20.082;2024-02-23T02:24:03;10.13;66.37
67641;SHT31;54434;50.096;20.082;2024-02-23T02:27:00;10.13;66.40
67641;SHT31;54434;50.096;20.082;2024-02-23T02:29:55;10.14;66.21
67641;SHT31;54434;50.096;20.082;2024-02-23T02:32:49;10.14;66.12
67641;SHT31;54434;50.096;20.082;2024-02-23T02:35:43;10.14;66.15
67641;SHT31;54434;50.096;20.082;2024-02-23T02:38:37;10.15;66.12
67641;SHT31;54434;50.096;20.082;2024-02-23T02:41:31;10.16;66.09
67641;SHT31;54434;50.096;20.082;2024-02-23T02:44:24;10.17;66.04
67641;SHT31;54434;50.096;20.082;2024-02-23T02:47:20;10.17;65.98
67641;SHT31;54434;50.096;20.082;2024-02-23T02:50:14;10.16;66.09
67641;SHT31;54434;50.096;20.082;2024-02-23T02:53:08;10.15;66.02
67641;SHT31;54434;50.096;20.082;2024-02-23T02:56:05;10.14;66.02
67641;SHT31;54434;50.096;20.082;2024-02-23T02:58:58;10.13;66.00
67641;SHT31;54434;50.096;20.082;2024-02-23T03:01:53;10.14;65.93
67641;SHT31;54434;50.096;20.082;2024-02-23T03:04:50;10.14;65.88
67641;SHT31;54434;50.096;20.082;2024-02-23T03:07:44;10.13;65.81
67641;SHT31;54434;50.096;20.082;2024-02-23T03:10:39;10.14;65.75
67641;SHT31;54434;50.096;20.082;2024-02-23T03:13:33;10.14;65.63
67641;SHT31;54434;50.096;20.082;2024-02-23T03:16:27;10.15;65.59
67641;SHT31;54434;50.096;20.082;2024-02-23T03:19:20;10.16;65.45
67641;SHT31;54434;50.096;20.082;2024-02-23T03:22:15;10.16;65.53
67641;SHT31;54434;50.096;20.082;2024-02-23T03:25:09;10.16;65.70
67641;SHT31;54434;50.096;20.082;2024-02-23T03:28:03;10.15;65.98
67641;SHT31;54434;50.096;20.082;2024-02-23T03:30:57;10.11;65.76
67641;SHT31;54434;50.096;20.082;2024-02-23T03:33:51;10.11;65.59
67641;SHT31;54434;50.096;20.082;2024-02-23T03:36:45;10.13;65.40
67641;SHT31;54434;50.096;20.082;2024-02-23T03:39:39;10.14;65.25
67641;SHT31;54434;50.096;20.082;2024-02-23T03:42:33;10.16;65.20
67641;SHT31;54434;50.096;20.082;2024-02-23T03:45:27;10.17;65.16
67641;SHT31;54434;50.096;20.082;2024-02-23T03:48:20;10.17;64.97
67641;SHT31;54434;50.096;20.082;2024-02-23T03:51:14;10.19;64.89
67641;SHT31;54434;50.096;20.082;2024-02-23T03:54:07;10.20;64.92
67641;SHT31;54434;50.096;20.082;2024-02-23T03:57:01;10.21;64.97
67641;SHT31;54434;50.096;20.082;2024-02-23T03:59:55;10.21;65.00
67641;SHT31;54434;50.096;20.082;2024-02-23T04:02:59;10.22;64.91
67641;SHT31;54434;50.096;20.082;2024-02-23T04:05:53;10.22;64.90
67641;SHT31;54434;50.096;20.082;2024-02-23T04:08:47;10.24;64.82
67641;SHT31;54434;50.096;20.082;2024-02-23T04:11:40;10.25;64.75
67641;SHT31;54434;50.096;20.082;2024-02-23T04:14:37;10.27;64.92
67641;SHT31;54434;50.096;20.082;2024-02-23T04:17:31;10.28;65.14
67641;SHT31;54434;50.096;20.082;2024-02-23T04:20:25;10.28;65.42
67641;SHT31;54434;50.096;20.082;2024-02-23T04:23:19;10.27;65.71
67641;SHT31;54434;50.096;20.082;2024-02-23T04:26:12;10.27;65.93
67641;SHT31;54434;50.096;20.082;2024-02-23T04:29:06;10.24;66.06
67641;SHT31;54434;50.096;20.082;2024-02-23T04:32:00;10.22;66.37
67641;SHT31;54434;50.096;20.082;2024-02-23T04:34:56;10.19;66.42
67641;SHT31;54434;50.096;20.082;2024-02-23T04:37:50;10.16;66.67
67641;SHT31;54434;50.096;20.082;2024-02-23T04:40:43;10.14;66.57
67641;SHT31;54434;50.096;20.082;2024-02-23T04:43:37;10.12;66.67
67641;SHT31;54434;50.096;20.082;2024-02-23T04:46:31;10.10;66.85
67641;SHT31;54434;50.096;20.082;2024-02-23T04:49:25;10.06;66.95
67641;SHT31;54434;50.096;20.082;2024-02-23T04:52:19;10.05;66.92
67641;SHT31;54434;50.096;20.082;2024-02-23T04:55:13;10.04;66.95
67641;SHT31;54434;50.096;20.082;2024-02-23T04:58:06;10.03;66.95
67641;SHT31;54434;50.096;20.082;2024-02-23T05:01:01;10.02;67.00
67641;SHT31;54434;50.096;20.082;2024-02-23T05:03:55;10.01;66.87
67641;SHT31;54434;50.096;20.082;2024-02-23T05:06:48;10.00;66.86
67641;SHT31;54434;50.096;20.082;2024-02-23T05:09:42;9.99;66.91
67641;SHT31;54434;50.096;20.082;2024-02-23T05:12:36;9.99;66.94
67641;SHT31;54434;50.096;20.082;2024-02-23T05:15:30;9.99;66.94
67641;SHT31;54434;50.096;20.082;2024-02-23T05:18:24;9.99;66.91
67641;SHT31;54434;50.096;20.082;2024-02-23T05:21:17;9.98;66.86
67641;SHT31;54434;50.096;20.082;2024-02-23T05:24:11;9.98;66.91
67641;SHT31;54434;50.096;20.082;2024-02-23T05:27:05;9.99;66.93
67641;SHT31;54434;50.096;20.082;2024-02-23T05:29:59;9.97;67.02
67641;SHT31;54434;50.096;20.082;2024-02-23T05:32:53;9.98;67.17
67641;SHT31;54434;50.096;20.082;2024-02-23T05:35:47;9.95;67.37
67641;SHT31;54434;50.096;20.082;2024-02-23T05:38:41;9.94;67.43
67641;SHT31;54434;50.096;20.082;2024-02-23T05:41:35;9.94;67.47
67641;SHT31;54434;50.096;20.082;2024-02-23T05:44:28;9.94;67.54
67641;SHT31;54434;50.096;20.082;2024-02-23T05:47:22;9.93;67.70
67641;SHT31;54434;50.096;20.082;2024-02-23T05:50:16;9.91;67.79
67641;SHT31;54434;50.096;20.082;2024-02-23T05:53:10;9.89;67.96
67641;SHT31;54434;50.096;20.082;2024-02-23T05:56:04;9.88;68.11
67641;SHT31;54434;50.096;20.082;2024-02-23T05:59:00;9.87;68.20
67641;SHT31;54434;50.096;20.082;2024-02-23T06:01:55;9.87;68.33
67641;SHT31;54434;50.096;20.082;2024-02-23T06:04:49;9.87;68.56
67641;SHT31;54434;50.096;20.082;2024-02-23T06:07:43;9.86;68.74
67641;SHT31;54434;50.096;20.082;2024-02-23T06:10:37;9.85;69.01
67641;SHT31;54434;50.096;20.082;2024-02-23T06:13:32;9.84;69.09
67641;SHT31;54434;50.096;20.082;2024-02-23T06:16:26;9.82;69.35
67641;SHT31;54434;50.096;20.082;2024-02-23T06:19:19;9.81;69.62
67641;SHT31;54434;50.096;20.082;2024-02-23T06:22:13;9.79;69.84
67641;SHT31;54434;50.096;20.082;2024-02-23T06:25:10;9.79;69.83
67641;SHT31;54434;50.096;20.082;2024-02-23T06:28:05;9.78;70.04
67641;SHT31;54434;50.096;20.082;2024-02-23T06:30:59;9.80;70.26
67641;SHT31;54434;50.096;20.082;2024-02-23T06:33:53;9.80;70.60
67641;SHT31;54434;50.096;20.082;2024-02-23T06:36:47;9.80;70.94
67641;SHT31;54434;50.096;20.082;2024-02-23T06:39:41;9.79;71.36
67641;SHT31;54434;50.096;20.082;2024-02-23T06:42:39;9.79;71.55
67641;SHT31;54434;50.096;20.082;2024-02-23T06:45:32;9.80;71.73
67641;SHT31;54434;50.096;20.082;2024-02-23T06:48:26;9.82;72.06
67641;SHT31;54434;50.096;20.082;2024-02-23T06:51:21;9.83;72.75
67641;SHT31;54434;50.096;20.082;2024-02-23T06:54:15;9.81;73.32
67641;SHT31;54434;50.096;20.082;2024-02-23T06:57:09;9.82;73.63
67641;SHT31;54434;50.096;20.082;2024-02-23T07:00:04;9.85;74.29
67641;SHT31;54434;50.096;20.082;2024-02-23T07:03:00;9.90;74.67
67641;SHT31;54434;50.096;20.082;2024-02-23T07:05:54;9.95;74.89
67641;SHT31;54434;50.096;20.082;2024-02-23T07:08:48;9.98;75.11
67641;SHT31;54434;50.096;20.082;2024-02-23T07:11:43;10.02;75.39
67641;SHT31;54434;50.096;20.082;2024-02-23T07:14:40;10.06;75.54
67641;SHT31;54434;50.096;20.082;2024-02-23T07:17:35;10.09;75.33
67641;SHT31;54434;50.096;20.082;2024-02-23T07:20:29;10.12;75.37
67641;SHT31;54434;50.096;20.082;2024-02-23T07:23:23;10.15;75.47
67641;SHT31;54434;50.096;20.082;2024-02-23T07:26:18;10.19;75.57
67641;SHT31;54434;50.096;20.082;2024-02-23T07:29:12;10.21;75.65
67641;SHT31;54434;50.096;20.082;2024-02-23T07:32:07;10.23;75.63
67641;SHT31;54434;50.096;20.082;2024-02-23T07:35:03;10.26;75.59
67641;SHT31;54434;50.096;20.082;2024-02-23T07:37:58;10.28;75.35
67641;SHT31;54434;50.096;20.082;2024-02-23T07:40:52;10.29;75.39
67641;SHT31;54434;50.096;20.082;2024-02-23T07:43:46;10.28;75.62
67641;SHT31;54434;50.096;20.082;2024-02-23T07:46:39;10.28;75.71
67641;SHT31;54434;50.096;20.082;2024-02-23T07:49:33;10.29;75.88
67641;SHT31;54434;50.096;20.082;2024-02-23T07:52:27;10.27;75.87
67641;SHT31;54434;50.096;20.082;2024-02-23T07:55:21;10.23;74.85
67641;SHT31;54434;50.096;20.082;2024-02-23T07:58:15;10.20;74.31
67641;SHT31;54434;50.096;20.082;2024-02-23T08:01:10;10.18;74.42
67641;SHT31;54434;50.096;20.082;2024-02-23T08:04:04;10.14;74.56
67641;SHT31;54434;50.096;20.082;2024-02-23T08:06:58;10.10;74.82
67641;SHT31;54434;50.096;20.082;2024-02-23T08:09:53;10.06;74.98
67641;SHT31;54434;50.096;20.082;2024-02-23T08:12:46;10.03;75.02
67641;SHT31;54434;50.096;20.082;2024-02-23T08:15:39;10.03;75.22
67641;SHT31;54434;50.096;20.082;2024-02-23T08:18:33;10.00;75.33
67641;SHT31;54434;50.096;20.082;2024-02-23T08:21:27;9.97;75.34
67641;SHT31;54434;50.096;20.082;2024-02-23T08:24:20;9.99;75.54
67641;SHT31;54434;50.096;20.082;2024-02-23T08:27:15;10.00;75.80
67641;SHT31;54434;50.096;20.082;2024-02-23T08:30:10;10.00;75.97
67641;SHT31;54434;50.096;20.082;2024-02-23T08:33:05;10.00;76.14
67641;SHT31;54434;50.096;20.082;2024-02-23T08:35:59;10.00;76.26
67641;SHT31;54434;50.096;20.082;2024-02-23T08:38:54;9.99;76.32
67641;SHT31;54434;50.096;20.082;2024-02-23T08:41:51;10.00;76.47
67641;SHT31;54434;50.096;20.082;2024-02-23T08:44:45;10.00;76.66
67641;SHT31;54434;50.096;20.082;2024-02-23T08:47:39;9.98;76.78
67641;SHT31;54434;50.096;20.082;2024-02-23T08:50:33;10.00;77.00
67641;SHT31;54434;50.096;20.082;2024-02-23T08:53:28;10.02;77.26
67641;SHT31;54434;50.096;20.082;2024-02-23T08:56:21;10.03;77.07
67641;SHT31;54434;50.096;20.082;2024-02-23T08:59:14;10.07;76.93
67641;SHT31;54434;50.096;20.082;2024-02-23T09:02:08;10.10;77.00
67641;SHT31;54434;50.096;20.082;2024-02-23T09:05:02;10.10;76.74
67641;SHT31;54434;50.096;20.082;2024-02-23T09:08:00;10.12;76.82
67641;SHT31;54434;50.096;20.082;2024-02-23T09:10:54;10.17;77.10
67641;SHT31;54434;50.096;20.082;2024-02-23T09:13:48;10.19;77.01
67641;SHT31;54434;50.096;20.082;2024-02-23T09:16:44;10.20;77.02
67641;SHT31;54434;50.096;20.082;2024-02-23T09:19:40;10.16;76.59
67641;SHT31;54434;50.096;20.082;2024-02-23T09:22:33;10.15;76.76
67641;SHT31;54434;50.096;20.082;2024-02-23T09:25:28;10.11;76.59
67641;SHT31;54434;50.096;20.082;2024-02-23T09:28:22;10.07;76.57
67641;SHT31;54434;50.096;20.082;2024-02-23T09:31:16;10.05;76.70
67641;SHT31;54434;50.096;20.082;2024-02-23T09:34:09;10.06;76.79
67641;SHT31;54434;50.096;20.082;2024-02-23T09:37:03;10.07;76.71
67641;SHT31;54434;50.096;20.082;2024-02-23T09:39:57;10.07;76.77
67641;SHT31;54434;50.096;20.082;2024-02-23T09:42:52;10.08;76.76
67641;SHT31;54434;50.096;20.082;2024-02-23T09:45:52;10.08;76.61
67641;SHT31;54434;50.096;20.082;2024-02-23T09:48:47;10.06;76.79
67641;SHT31;54434;50.096;20.082;2024-02-23T09:51:41;10.07;76.91
67641;SHT31;54434;50.096;20.082;2024-02-23T09:54:35;10.09;76.89
67641;SHT31;54434;50.096;20.082;2024-02-23T09:57:29;10.11;77.11
67641;SHT31;54434;50.096;20.082;2024-02-23T10:00:23;10.10;77.08
67641;SHT31;54434;50.096;20.082;2024-02-23T10:03:17;10.13;77.02
67641;SHT31;54434;50.096;20.082;2024-02-23T10:06:14;10.14;77.08
67641;SHT31;54434;50.096;20.082;2024-02-23T10:09:09;10.11;77.19
67641;SHT31;54434;50.096;20.082;2024-02-23T10:12:04;10.09;77.13
67641;SHT31;54434;50.096;20.082;2024-02-23T10:14:59;10.10;77.03
67641;SHT31;54434;50.096;20.082;2024-02-23T10:17:53;10.13;77.04
67641;SHT31;54434;50.096;20.082;2024-02-23T10:20:48;10.12;77.09
67641;SHT31;54434;50.096;20.082;2024-02-23T10:23:43;10.15;77.23
67641;SHT31;54434;50.096;20.082;2024-02-23T10:26:39;10.17;77.41
67641;SHT31;54434;50.096;20.082;2024-02-23T10:29:32;10.26;77.72
67641;SHT31;54434;50.096;20.082;2024-02-23T10:32:26;10.39;77.68
67641;SHT31;54434;50.096;20.082;2024-02-23T10:35:24;10.52;77.54
67641;SHT31;54434;50.096;20.082;2024-02-23T10:38:19;10.64;77.37
67641;SHT31;54434;50.096;20.082;2024-02-23T10:41:17;10.76;77.04
67641;SHT31;54434;50.096;20.082;2024-02-23T10:44:11;10.86;77.00
67641;SHT31;54434;50.096;20.082;2024-02-23T10:47:07;10.93;76.49
67641;SHT31;54434;50.096;20.082;2024-02-23T10:50:04;10.96;76.62
67641;SHT31;54434;50.096;20.082;2024-02-23T10:53:02;11.05;76.63
67641;SHT31;54434;50.096;20.082;2024-02-23T10:55:58;11.12;76.19
67641;SHT31;54434;50.096;20.082;2024-02-23T10:58:55;11.18;76.08
67641;SHT31;54434;50.096;20.082;2024-02-23T11:01:49;11.28;76.18
67641;SHT31;54434;50.096;20.082;2024-02-23T11:04:47;11.33;76.01
67641;SHT31;54434;50.096;20.082;2024-02-23T11:07:44;11.37;75.75
67641;SHT31;54434;50.096;20.082;2024-02-23T11:10:43;11.39;75.80
67641;SHT31;54434;50.096;20.082;2024-02-23T11:13:43;11.42;75.38
67641;SHT31;54434;50.096;20.082;2024-02-23T11:16:39;11.45;75.31
67641;SHT31;54434;50.096;20.082;2024-02-23T11:19:34;11.50;75.01
67641;SHT31;54434;50.096;20.082;2024-02-23T11:22:31;11.56;75.14
67641;SHT31;54434;50.096;20.082;2024-02-23T11:25:27;11.60;75.13
67641;SHT31;54434;50.096;20.082;2024-02-23T11:28:25;11.65;74.94
67641;SHT31;54434;50.096;20.082;2024-02-23T11:31:20;11.69;74.59
67641;SHT31;54434;50.096;20.082;2024-02-23T11:34:15;11.65;74.12
67641;SHT31;54434;50.096;20.082;2024-02-23T11:37:16;11.61;74.07
67641;SHT31;54434;50.096;20.082;2024-02-23T11:40:13;11.64;73.86
67641;SHT31;54434;50.096;20.082;2024-02-23T11:43:09;11.66;73.96
67641;SHT31;54434;50.096;20.082;2024-02-23T11:46:04;11.69;73.66
67641;SHT31;54434;50.096;20.082;2024-02-23T11:48:58;11.71;73.54
67641;SHT31;54434;50.096;20.082;2024-02-23T11:51:53;11.70;73.50
67641;SHT31;54434;50.096;20.082;2024-02-23T11:54:46;11.72;73.41
67641;SHT31;54434;50.096;20.082;2024-02-23T11:57:40;11.78;73.31
67641;SHT31;54434;50.096;20.082;2024-02-23T12:00:36;11.80;73.25
67641;SHT31;54434;50.096;20.082;2024-02-23T12:03:31;11.80;73.15
67641;SHT31;54434;50.096;20.082;2024-02-23T12:06:26;11.77;73.09
67641;SHT31;54434;50.096;20.082;2024-02-23T12:09:21;11.71;72.84
67641;SHT31;54434;50.096;20.082;2024-02-23T12:12:15;11.68;72.86
67641;SHT31;54434;50.096;20.082;2024-02-23T12:15:10;11.70;73.15
67641;SHT31;54434;50.096;20.082;2024-02-23T12:18:04;11.72;73.26
67641;SHT31;54434;50.096;20.082;2024-02-23T12:21:00;11.82;73.17
67641;SHT31;54434;50.096;20.082;2024-02-23T12:23:56;11.93;72.91
67641;SHT31;54434;50.096;20.082;2024-02-23T12:26:54;12.00;73.01
67641;SHT31;54434;50.096;20.082;2024-02-23T12:29:52;12.09;72.44
67641;SHT31;54434;50.096;20.082;2024-02-23T12:32:47;12.11;72.34
67641;SHT31;54434;50.096;20.082;2024-02-23T12:35:40;12.12;72.24
67641;SHT31;54434;50.096;20.082;2024-02-23T12:38:35;12.14;72.02
67641;SHT31;54434;50.096;20.082;2024-02-23T12:41:29;12.15;71.81
67641;SHT31;54434;50.096;20.082;2024-02-23T12:44:23;12.12;71.74
67641;SHT31;54434;50.096;20.082;2024-02-23T12:47:17;12.13;72.14
67641;SHT31;54434;50.096;20.082;2024-02-23T12:50:11;12.13;72.03
67641;SHT31;54434;50.096;20.082;2024-02-23T12:53:05;12.12;72.08
67641;SHT31;54434;50.096;20.082;2024-02-23T12:55:59;12.06;71.83
67641;SHT31;54434;50.096;20.082;2024-02-23T12:58:57;12.00;71.64
67641;SHT31;54434;50.096;20.082;2024-02-23T13:01:51;11.93;71.52
67641;SHT31;54434;50.096;20.082;2024-02-23T13:04:46;11.89;71.11
67641;SHT31;54434;50.096;20.082;2024-02-23T13:07:39;11.90;71.24
67641;SHT31;54434;50.096;20.082;2024-02-23T13:10:33;11.94;71.49
67641;SHT31;54434;50.096;20.082;2024-02-23T13:13:26;11.92;71.54
67641;SHT31;54434;50.096;20.082;2024-02-23T13:16:20;11.84;71.38
67641;SHT31;54434;50.096;20.082;2024-02-23T13:19:14;11.76;71.49
67641;SHT31;54434;50.096;20.082;2024-02-23T13:22:08;11.72;71.58
67641;SHT31;54434;50.096;20.082;2024-02-23T13:25:02;11.67;71.85
67641;SHT31;54434;50.096;20.082;2024-02-23T13:27:57;11.62;71.77
67641;SHT31;54434;50.096;20.082;2024-02-23T13:30:50;11.60;71.73
67641;SHT31;54434;50.096;20.082;2024-02-23T13:33:44;11.55;71.92
67641;SHT31;54434;50.096;20.082;2024-02-23T13:36:38;11.50;72.01
67641;SHT31;54434;50.096;20.082;2024-02-23T13:39:31;11.45;72.11
67641;SHT31;54434;50.096;20.082;2024-02-23T13:42:25;11.41;72.25
67641;SHT31;54434;50.096;20.082;2024-02-23T13:45:19;11.39;72.51
67641;SHT31;54434;50.096;20.082;2024-02-23T13:48:16;11.37;72.47
67641;SHT31;54434;50.096;20.082;2024-02-23T13:51:11;11.36;72.83
67641;SHT31;54434;50.096;20.082;2024-02-23T13:54:05;11.32;72.49
67641;SHT31;54434;50.096;20.082;2024-02-23T13:56:59;11.31;72.75
67641;SHT31;54434;50.096;20.082;2024-02-23T13:59:53;11.31;72.32
67641;SHT31;54434;50.096;20.082;2024-02-23T14:02:47;11.29;72.32
67641;SHT31;54434;50.096;20.082;2024-02-23T14:05:41;11.29;72.48
67641;SHT31;54434;50.096;20.082;2024-02-23T14:08:36;11.30;72.58
67641;SHT31;54434;50.096;20.082;2024-02-23T14:11:31;11.29;71.79
67641;SHT31;54434;50.096;20.082;2024-02-23T14:14:25;11.32;71.78
67641;SHT31;54434;50.096;20.082;2024-02-23T14:17:18;11.34;71.34
67641;SHT31;54434;50.096;20.082;2024-02-23T14:20:12;11.32;71.27
67641;SHT31;54434;50.096;20.082;2024-02-23T14:23:07;11.28;71.74
67641;SHT31;54434;50.096;20.082;2024-02-23T14:26:01;11.23;72.05
67641;SHT31;54434;50.096;20.082;2024-02-23T14:28:56;11.17;72.23
67641;SHT31;54434;50.096;20.082;2024-02-23T14:31:51;11.09;72.69
67641;SHT31;54434;50.096;20.082;2024-02-23T14:34:44;11.04;73.28
67641;SHT31;54434;50.096;20.082;2024-02-23T14:37:39;11.02;73.40
67641;SHT31;54434;50.096;20.082;2024-02-23T14:40:32;10.97;73.80
67641;SHT31;54434;50.096;20.082;2024-02-23T14:43:27;10.94;74.22
67641;SHT31;54434;50.096;20.082;2024-02-23T14:46:20;10.86;74.68
67641;SHT31;54434;50.096;20.082;2024-02-23T14:49:13;10.82;75.13
67641;SHT31;54434;50.096;20.082;2024-02-23T14:52:10;10.76;75.53
67641;SHT31;54434;50.096;20.082;2024-02-23T14:55:04;10.74;75.74
67641;SHT31;54434;50.096;20.082;2024-02-23T14:58:00;10.70;76.04
67641;SHT31;54434;50.096;20.082;2024-02-23T15:00:54;10.70;76.06
67641;SHT31;54434;50.096;20.082;2024-02-23T15:03:47;10.67;76.10
67641;SHT31;54434;50.096;20.082;2024-02-23T15:06:40;10.66;76.45
67641;SHT31;54434;50.096;20.082;2024-02-23T15:09:34;10.67;76.29
67641;SHT31;54434;50.096;20.082;2024-02-23T15:12:29;10.71;76.52
67641;SHT31;54434;50.096;20.082;2024-02-23T15:15:23;10.79;76.46
67641;SHT31;54434;50.096;20.082;2024-02-23T15:18:16;10.73;76.51
67641;SHT31;54434;50.096;20.082;2024-02-23T15:21:10;10.67;76.73
67641;SHT31;54434;50.096;20.082;2024-02-23T15:24:04;10.62;76.81
67641;SHT31;54434;50.096;20.082;2024-02-23T15:26:58;10.55;76.92
67641;SHT31;54434;50.096;20.082;2024-02-23T15:29:51;10.51;77.00
67641;SHT31;54434;50.096;20.082;2024-02-23T15:32:46;10.47;76.89
67641;SHT31;54434;50.096;20.082;2024-02-23T15:35:40;10.43;77.08
67641;SHT31;54434;50.096;20.082;2024-02-23T15:38:34;10.35;77.08
67641;SHT31;54434;50.096;20.082;2024-02-23T15:41:28;10.31;77.20
67641;SHT31;54434;50.096;20.082;2024-02-23T15:44:23;10.26;77.29
67641;SHT31;54434;50.096;20.082;2024-02-23T15:47:19;10.22;77.12
67641;SHT31;54434;50.096;20.082;2024-02-23T15:50:14;10.17;76.95
67641;SHT31;54434;50.096;20.082;2024-02-23T15:53:28;10.08;76.92
67641;SHT31;54434;50.096;20.082;2024-02-23T15:56:23;10.02;77.07
67641;SHT31;54434;50.096;20.082;2024-02-23T15:59:16;9.95;77.19
67641;SHT31;54434;50.096;20.082;2024-02-23T16:02:10;9.90;77.40
67641;SHT31;54434;50.096;20.082;2024-02-23T16:05:04;9.82;77.52
67641;SHT31;54434;50.096;20.082;2024-02-23T16:08:01;9.76;77.69
67641;SHT31;54434;50.096;20.082;2024-02-23T16:10:58;9.71;77.68
67641;SHT31;54434;50.096;20.082;2024-02-23T16:13:52;9.68;77.70
67641;SHT31;54434;50.096;20.082;2024-02-23T16:16:46;9.62;77.76
67641;SHT31;54434;50.096;20.082;2024-02-23T16:19:39;9.58;77.98
67641;SHT31;54434;50.096;20.082;2024-02-23T16:22:34;9.55;78.09
67641;SHT31;54434;50.096;20.082;2024-02-23T16:25:28;9.52;78.16
67641;SHT31;54434;50.096;20.082;2024-02-23T16:28:21;9.49;78.32
67641;SHT31;54434;50.096;20.082;2024-02-23T16:31:20;9.49;78.32
67641;SHT31;54434;50.096;20.082;2024-02-23T16:34:13;9.47;78.40
67641;SHT31;54434;50.096;20.082;2024-02-23T16:37:08;9.45;78.54
67641;SHT31;54434;50.096;20.082;2024-02-23T16:40:01;9.43;78.61
67641;SHT31;54434;50.096;20.082;2024-02-23T16:42:58;9.42;78.66
67641;SHT31;54434;50.096;20.082;2024-02-23T16:45:52;9.38;78.72
67641;SHT31;54434;50.096;20.082;2024-02-23T16:48:46;9.35;78.80
67641;SHT31;54434;50.096;20.082;2024-02-23T16:51:40;9.31;78.80
67641;SHT31;54434;50.096;20.082;2024-02-23T16:54:34;9.28;78.83
67641;SHT31;54434;50.096;20.082;2024-02-23T16:57:28;9.27;78.82
67641;SHT31;54434;50.096;20.082;2024-02-23T17:00:23;9.25;78.80
67641;SHT31;54434;50.096;20.082;2024-02-23T17:03:16;9.23;78.80
67641;SHT31;54434;50.096;20.082;2024-02-23T17:06:10;9.19;78.82
67641;SHT31;54434;50.096;20.082;2024-02-23T17:09:04;9.14;78.83
67641;SHT31;54434;50.096;20.082;2024-02-23T17:11:59;9.08;78.99
67641;SHT31;54434;50.096;20.082;2024-02-23T17:14:53;9.01;79.12
67641;SHT31;54434;50.096;20.082;2024-02-23T17:17:47;8.94;79.23
67641;SHT31;54434;50.096;20.082;2024-02-23T17:20:47;8.91;79.34
67641;SHT31;54434;50.096;20.082;2024-02-23T17:23:40;8.88;79.45
67641;SHT31;54434;50.096;20.082;2024-02-23T17:26:34;8.85;79.54
67641;SHT31;54434;50.096;20.082;2024-02-23T17:29:28;8.84;79.55
67641;SHT31;54434;50.096;20.082;2024-02-23T17:32:23;8.81;79.71
67641;SHT31;54434;50.096;20.082;2024-02-23T17:35:17;8.80;79.80
67641;SHT31;54434;50.096;20.082;2024-02-23T17:38:11;8.78;79.87
67641;SHT31;54434;50.096;20.082;2024-02-23T17:41:05;8.77;79.95
67641;SHT31;54434;50.096;20.082;2024-02-23T17:44:01;8.77;79.90
67641;SHT31;54434;50.096;20.082;2024-02-23T17:46:55;8.75;79.89
67641;SHT31;54434;50.096;20.082;2024-02-23T17:49:48;8.71;79.90
67641;SHT31;54434;50.096;20.082;2024-02-23T17:52:42;8.68;80.12
67641;SHT31;54434;50.096;20.082;2024-02-23T17:55:37;8.66;80.21
67641;SHT31;54434;50.096;20.082;2024-02-23T17:58:31;8.64;80.35
67641;SHT31;54434;50.096;20.082;2024-02-23T18:01:25;8.63;80.51
67641;SHT31;54434;50.096;20.082;2024-02-23T18:04:18;8.64;80.64
67641;SHT31;54434;50.096;20.082;2024-02-23T18:07:12;8.64;80.81
67641;SHT31;54434;50.096;20.082;2024-02-23T18:10:07;8.64;80.81
67641;SHT31;54434;50.096;20.082;2024-02-23T18:13:00;8.65;80.88